createdAt,value
2018-05-13T00:00:26.343Z,16.70
2018-05-13T00:02:52.917Z,16.80
2018-05-13T00:05:19.632Z,16.70
2018-05-13T00:07:46.170Z,16.60
2018-05-13T00:10:12.740Z,16.50
2018-05-13T00:12:39.660Z,16.50
2018-05-13T00:15:06.268Z,16.50
2018-05-13T00:17:32.824Z,16.60
2018-05-13T00:19:59.434Z,16.70
2018-05-13T00:22:26.389Z,16.60
2018-05-13T00:24:52.927Z,16.60
2018-05-13T00:27:19.509Z,16.50
2018-05-13T00:29:46.069Z,16.40
2018-05-13T00:32:12.644Z,16.30
2018-05-13T00:34:39.221Z,16.10
2018-05-13T00:37:05.773Z,16.10
2018-05-13T00:39:32.740Z,15.80
2018-05-13T00:41:59.660Z,15.70
2018-05-13T00:44:26.246Z,15.70
2018-05-13T00:46:53.197Z,15.50
2018-05-13T00:49:20.141Z,15.60
2018-05-13T00:51:47.133Z,15.80
2018-05-13T00:54:25.856Z,15.80
2018-05-13T00:56:52.833Z,15.90
2018-05-13T00:59:19.381Z,15.90
2018-05-13T01:01:45.964Z,15.80
2018-05-13T01:04:12.541Z,15.70
2018-05-13T01:06:39.497Z,15.60
2018-05-13T01:09:06.436Z,15.50
2018-05-13T01:11:33.015Z,15.50
2018-05-13T01:13:59.945Z,15.40
2018-05-13T01:16:26.511Z,15.40
2018-05-13T01:18:53.460Z,15.30
2018-05-13T01:21:20.013Z,15.30
2018-05-13T01:23:46.975Z,15.40
2018-05-13T01:26:13.553Z,15.40
2018-05-13T01:28:40.130Z,15.40
2018-05-13T01:31:06.703Z,15.50
2018-05-13T01:33:33.244Z,15.50
2018-05-13T01:35:59.816Z,15.50
2018-05-13T01:38:26.376Z,15.30
2018-05-13T01:40:52.962Z,15.30
2018-05-13T01:43:19.540Z,15.30
2018-05-13T01:45:46.474Z,15.40
2018-05-13T01:48:13.101Z,15.40
2018-05-13T01:50:39.644Z,15.20
2018-05-13T01:53:06.227Z,15.10
2018-05-13T01:55:32.808Z,15.20
2018-05-13T01:57:59.716Z,15.30
2018-05-13T02:00:26.288Z,15.30
2018-05-13T02:02:52.832Z,15.30
2018-05-13T02:05:19.428Z,15.20
2018-05-13T02:07:46.053Z,15.10
2018-05-13T02:10:12.973Z,14.70
2018-05-13T02:12:39.553Z,14.70
2018-05-13T02:15:06.485Z,14.70
2018-05-13T02:17:33.048Z,14.70
2018-05-13T02:20:00.016Z,14.30
2018-05-13T02:22:26.923Z,14.10
2018-05-13T02:24:53.488Z,14.10
2018-05-13T02:27:20.062Z,14.00
2018-05-13T02:29:47.024Z,14.00
2018-05-13T02:32:13.972Z,13.90
2018-05-13T02:34:40.899Z,14.00
2018-05-13T02:37:07.485Z,14.00
2018-05-13T02:39:34.036Z,14.00
2018-05-13T02:42:00.612Z,14.00
2018-05-13T02:44:27.192Z,14.20
2018-05-13T02:46:53.745Z,14.30
2018-05-13T02:49:20.344Z,14.30
2018-05-13T02:51:46.925Z,14.30
2018-05-13T02:54:13.515Z,14.20
2018-05-13T02:56:40.490Z,14.10
2018-05-13T02:59:07.036Z,14.10
2018-05-13T03:01:33.613Z,14.20
2018-05-13T03:04:00.158Z,14.40
2018-05-13T03:08:59.985Z,14.50
2018-05-13T03:11:26.556Z,14.60
2018-05-13T03:13:53.124Z,14.60
2018-05-13T03:16:19.687Z,14.60
2018-05-13T03:18:46.672Z,14.60
2018-05-13T03:21:13.280Z,14.60
2018-05-13T03:23:39.856Z,14.60
2018-05-13T03:26:06.423Z,14.60
2018-05-13T03:28:32.952Z,14.60
2018-05-13T03:30:59.908Z,14.50
2018-05-13T03:33:26.815Z,14.40
2018-05-13T03:35:53.380Z,14.40
2018-05-13T03:38:19.972Z,14.30
2018-05-13T03:40:46.911Z,14.10
2018-05-13T03:43:13.476Z,14.10
2018-05-13T03:45:40.406Z,14.20
2018-05-13T03:48:06.967Z,14.20
2018-05-13T03:50:33.916Z,14.10
2018-05-13T03:53:00.460Z,14.10
2018-05-13T03:55:27.040Z,13.90
2018-05-13T03:57:53.576Z,13.90
2018-05-13T04:00:20.533Z,13.90
2018-05-13T04:02:47.139Z,13.90
2018-05-13T04:05:13.696Z,13.90
2018-05-13T04:11:11.329Z,14.00
2018-05-13T04:13:50.393Z,13.90
2018-05-13T04:16:17.016Z,13.90
2018-05-13T04:18:43.989Z,13.70
2018-05-13T04:21:10.539Z,13.70
2018-05-13T04:23:37.130Z,13.70
2018-05-13T04:26:03.712Z,13.90
2018-05-13T04:28:30.270Z,13.90
2018-05-13T04:30:57.220Z,14.00
2018-05-13T04:33:23.800Z,14.00
2018-05-13T04:35:50.397Z,14.00
2018-05-13T04:38:17.092Z,14.00
2018-05-13T04:40:43.635Z,14.00
2018-05-13T04:43:10.207Z,13.90
2018-05-13T04:45:36.755Z,14.00
2018-05-13T04:48:03.373Z,14.10
2018-05-13T04:50:36.844Z,14.00
2018-05-13T04:53:03.432Z,14.10
2018-05-13T04:55:30.373Z,14.10
2018-05-13T04:57:57.296Z,14.30
2018-05-13T05:00:23.864Z,14.30
2018-05-13T05:02:50.433Z,14.60
2018-05-13T05:05:17.053Z,14.70
2018-05-13T05:07:43.699Z,15.20
2018-05-13T05:10:10.307Z,15.70
2018-05-13T05:12:36.905Z,16.30
2018-05-13T05:15:03.468Z,16.70
2018-05-13T05:17:30.415Z,17.40
2018-05-13T05:19:56.988Z,17.40
2018-05-13T05:22:23.541Z,17.80
2018-05-13T05:24:50.121Z,18.10
2018-05-13T05:27:16.736Z,18.20
2018-05-13T05:29:43.277Z,18.10
2018-05-13T05:32:09.851Z,18.00
2018-05-13T05:34:36.432Z,18.00
2018-05-13T05:37:02.984Z,18.10
2018-05-13T05:39:29.558Z,18.30
2018-05-13T05:41:56.474Z,18.60
2018-05-13T05:44:23.049Z,18.60
2018-05-13T05:46:49.700Z,18.80
2018-05-13T05:49:16.654Z,18.90
2018-05-13T05:51:43.640Z,19.00
2018-05-13T05:54:10.236Z,19.00
2018-05-13T05:56:36.813Z,19.30
2018-05-13T05:59:03.781Z,19.20
2018-05-13T06:01:30.340Z,19.20
2018-05-13T06:03:56.933Z,19.50
2018-05-13T06:06:23.484Z,19.40
2018-05-13T06:08:50.093Z,19.70
2018-05-13T06:11:16.710Z,19.90
2018-05-13T06:13:43.673Z,20.10
2018-05-13T06:16:10.665Z,20.10
2018-05-13T06:18:37.200Z,20.10
2018-05-13T06:21:03.844Z,20.30
2018-05-13T06:23:30.413Z,20.60
2018-05-13T06:25:56.956Z,21.00
2018-05-13T06:28:23.540Z,21.20
2018-05-13T06:30:50.092Z,21.20
2018-05-13T06:33:16.690Z,21.30
2018-05-13T06:35:43.269Z,21.40
2018-05-13T06:38:09.812Z,21.50
2018-05-13T06:40:36.400Z,21.60
2018-05-13T06:43:03.348Z,21.80
2018-05-13T06:45:29.937Z,21.80
2018-05-13T06:47:56.525Z,21.70
2018-05-13T06:50:23.071Z,21.90
2018-05-13T06:52:49.662Z,22.00
2018-05-13T06:55:16.216Z,21.80
2018-05-13T06:57:42.807Z,21.80
2018-05-13T07:00:09.390Z,21.60
2018-05-13T07:02:36.326Z,21.80
2018-05-13T07:05:02.956Z,21.80
2018-05-13T07:07:29.732Z,22.10
2018-05-13T07:09:56.321Z,22.10
2018-05-13T07:12:23.022Z,22.20
2018-05-13T07:14:49.540Z,22.30
2018-05-13T07:17:16.232Z,22.30
2018-05-13T07:19:42.768Z,22.30
2018-05-13T07:22:09.457Z,22.40
2018-05-13T07:24:36.429Z,22.90
2018-05-13T07:27:02.992Z,22.90
2018-05-13T07:29:29.589Z,22.80
2018-05-13T07:31:56.157Z,22.70
2018-05-13T07:34:23.489Z,22.70
2018-05-13T07:36:50.088Z,22.70
2018-05-13T07:39:16.708Z,22.60
2018-05-13T07:41:43.717Z,22.90
2018-05-13T07:44:10.263Z,22.90
2018-05-13T07:46:36.840Z,23.30
2018-05-13T07:49:03.465Z,23.50
2018-05-13T07:51:30.012Z,23.50
2018-05-13T07:53:56.601Z,23.60
2018-05-13T07:56:23.149Z,23.20
2018-05-13T07:58:49.753Z,23.40
2018-05-13T08:01:16.332Z,23.60
2018-05-13T08:03:42.872Z,23.50
2018-05-13T08:06:10.257Z,23.50
2018-05-13T08:08:36.803Z,23.80
2018-05-13T08:11:03.400Z,24.00
2018-05-13T08:13:30.012Z,24.00
2018-05-13T08:15:56.913Z,23.70
2018-05-13T08:18:23.485Z,23.70
2018-05-13T08:20:50.054Z,23.30
2018-05-13T08:23:16.681Z,23.30
2018-05-13T08:25:43.278Z,23.10
2018-05-13T08:28:09.822Z,22.90
2018-05-13T08:30:36.760Z,22.90
2018-05-13T08:33:03.696Z,23.20
2018-05-13T08:35:30.256Z,23.20
2018-05-13T08:37:56.844Z,23.30
2018-05-13T08:40:23.420Z,23.30
2018-05-13T08:42:49.981Z,23.60
2018-05-13T08:45:16.611Z,23.50
2018-05-13T08:47:43.212Z,23.50
2018-05-13T08:50:10.148Z,23.60
2018-05-13T08:52:36.775Z,23.60
2018-05-13T08:55:03.385Z,23.20
2018-05-13T08:57:29.991Z,23.20
2018-05-13T08:59:56.611Z,23.50
2018-05-13T09:02:23.145Z,23.90
2018-05-13T09:04:49.751Z,24.40
2018-05-13T09:07:16.695Z,24.10
2018-05-13T09:09:43.272Z,24.10
2018-05-13T09:12:10.292Z,23.70
2018-05-13T09:14:36.876Z,23.70
2018-05-13T09:17:04.104Z,23.70
2018-05-13T09:19:30.899Z,23.70
2018-05-13T09:21:57.942Z,24.10
2018-05-13T09:24:25.154Z,24.30
2018-05-13T09:26:51.936Z,24.30
2018-05-13T09:29:18.522Z,24.10
2018-05-13T09:31:45.076Z,24.20
2018-05-13T09:34:11.646Z,24.10
2018-05-13T09:36:38.251Z,24.30
2018-05-13T09:39:05.531Z,24.10
2018-05-13T09:41:32.124Z,24.10
2018-05-13T09:43:58.680Z,24.10
2018-05-13T09:46:25.260Z,24.10
2018-05-13T09:48:52.272Z,24.90
2018-05-13T09:51:18.886Z,24.90
2018-05-13T09:53:45.796Z,25.20
2018-05-13T09:56:12.860Z,25.20
2018-05-13T09:58:43.991Z,25.00
2018-05-13T10:01:11.460Z,25.00
2018-05-13T10:03:37.992Z,25.20
2018-05-13T10:06:04.599Z,24.90
2018-05-13T10:08:31.519Z,25.50
2018-05-13T10:10:58.092Z,25.50
2018-05-13T10:13:24.687Z,25.70
2018-05-13T10:15:51.260Z,25.90
2018-05-13T10:18:17.837Z,25.70
2018-05-13T10:20:44.748Z,25.80
2018-05-13T10:23:11.369Z,25.80
2018-05-13T10:25:37.937Z,25.60
2018-05-13T10:28:04.488Z,25.10
2018-05-13T10:30:31.077Z,25.50
2018-05-13T10:32:57.980Z,25.70
2018-05-13T10:35:24.552Z,25.60
2018-05-13T10:38:06.168Z,25.70
2018-05-13T10:40:33.158Z,25.70
2018-05-13T10:42:59.760Z,25.90
2018-05-13T10:45:26.341Z,26.30
2018-05-13T10:47:53.100Z,26.40
2018-05-13T10:50:19.780Z,26.40
2018-05-13T10:52:47.781Z,26.40
2018-05-13T10:55:14.333Z,26.40
2018-05-13T10:57:41.112Z,26.50
2018-05-13T11:00:07.906Z,26.40
2018-05-13T11:02:34.768Z,26.20
2018-05-13T11:05:01.447Z,26.00
2018-05-13T11:07:28.048Z,26.20
2018-05-13T11:09:54.978Z,25.80
2018-05-13T11:12:21.565Z,25.80
2018-05-13T11:14:48.168Z,25.80
2018-05-13T11:17:14.739Z,26.10
2018-05-13T11:19:41.695Z,26.50
2018-05-13T11:22:08.600Z,26.40
2018-05-13T11:24:35.191Z,26.40
2018-05-13T11:27:01.732Z,26.50
2018-05-13T11:29:28.324Z,26.80
2018-05-13T11:31:54.896Z,26.90
2018-05-13T11:34:21.437Z,26.60
2018-05-13T11:36:48.033Z,26.60
2018-05-13T11:39:14.948Z,26.90
2018-05-13T11:41:41.525Z,27.00
2018-05-13T11:44:08.128Z,26.70
2018-05-13T11:46:34.727Z,26.70
2018-05-13T11:49:01.293Z,26.70
2018-05-13T11:51:28.204Z,27.10
2018-05-13T11:53:54.774Z,27.10
2018-05-13T11:56:21.408Z,27.20
2018-05-13T11:58:47.912Z,27.30
2018-05-13T12:01:14.498Z,27.30
2018-05-13T12:03:41.259Z,27.40
2018-05-13T12:06:07.869Z,27.70
2018-05-13T12:08:34.452Z,27.50
2018-05-13T12:11:00.997Z,27.40
2018-05-13T12:13:27.572Z,27.50
2018-05-13T12:15:54.534Z,28.20
2018-05-13T12:18:21.456Z,28.00
2018-05-13T12:20:51.024Z,28.00
2018-05-13T12:23:17.582Z,28.00
2018-05-13T12:25:44.132Z,28.00
2018-05-13T12:28:10.707Z,28.40
2018-05-13T12:30:37.283Z,28.60
2018-05-13T12:33:03.856Z,29.00
2018-05-13T12:35:30.466Z,28.80
2018-05-13T12:37:57.147Z,28.70
2018-05-13T12:40:24.357Z,28.90
2018-05-13T12:42:50.983Z,29.20
2018-05-13T12:45:17.570Z,29.40
2018-05-13T12:47:44.213Z,29.20
2018-05-13T12:50:10.839Z,29.00
2018-05-13T12:52:37.440Z,29.20
2018-05-13T12:55:04.132Z,28.90
2018-05-13T12:57:30.672Z,29.00
2018-05-13T12:59:57.248Z,29.00
2018-05-13T13:02:23.879Z,28.20
2018-05-13T13:04:50.408Z,28.00
2018-05-13T13:07:17.008Z,27.90
2018-05-13T13:09:43.572Z,27.90
2018-05-13T13:12:10.156Z,28.30
2018-05-13T13:14:36.697Z,28.60
2018-05-13T13:17:03.709Z,27.90
2018-05-13T13:19:30.257Z,27.90
2018-05-13T13:21:56.837Z,28.00
2018-05-13T13:24:23.809Z,28.10
2018-05-13T13:26:50.356Z,28.10
2018-05-13T13:29:16.948Z,27.70
2018-05-13T13:31:43.491Z,27.50
2018-05-13T13:34:10.068Z,27.60
2018-05-13T13:36:36.700Z,28.10
2018-05-13T13:39:03.372Z,28.50
2018-05-13T13:41:29.961Z,28.70
2018-05-13T13:43:56.512Z,28.80
2018-05-13T13:46:23.108Z,28.90
2018-05-13T13:48:49.712Z,29.10
2018-05-13T13:51:16.251Z,29.50
2018-05-13T13:53:42.844Z,29.70
2018-05-13T13:56:09.384Z,29.70
2018-05-13T13:58:35.963Z,29.60
2018-05-13T14:01:03.001Z,29.60
2018-05-13T14:03:29.547Z,29.70
2018-05-13T14:05:56.145Z,29.40
2018-05-13T14:08:22.692Z,29.30
2018-05-13T14:10:49.268Z,29.60
2018-05-13T14:13:15.841Z,29.20
2018-05-13T14:15:42.448Z,29.30
2018-05-13T14:18:09.099Z,29.50
2018-05-13T14:20:35.820Z,29.50
2018-05-13T14:23:02.381Z,29.40
2018-05-13T14:25:28.956Z,29.30
2018-05-13T14:27:55.501Z,29.20
2018-05-13T14:30:22.077Z,28.90
2018-05-13T14:32:48.651Z,28.30
2018-05-13T14:35:15.601Z,28.10
2018-05-13T14:37:42.564Z,28.20
2018-05-13T14:40:09.509Z,28.00
2018-05-13T14:42:36.474Z,27.90
2018-05-13T14:45:03.474Z,28.20
2018-05-13T14:47:30.053Z,28.20
2018-05-13T14:49:56.638Z,28.40
2018-05-13T14:52:23.556Z,27.90
2018-05-13T14:54:50.152Z,27.90
2018-05-13T14:57:16.711Z,27.70
2018-05-13T14:59:43.308Z,27.40
2018-05-13T15:02:09.893Z,27.10
2018-05-13T15:04:36.455Z,26.80
2018-05-13T15:07:03.112Z,26.50
2018-05-13T15:09:29.672Z,26.50
2018-05-13T15:11:56.220Z,26.30
2018-05-13T15:14:22.840Z,26.30
2018-05-13T15:16:49.460Z,26.30
2018-05-13T15:19:16.379Z,26.40
2018-05-13T15:21:42.971Z,26.40
2018-05-13T15:24:10.027Z,26.50
2018-05-13T15:26:36.671Z,26.50
2018-05-13T15:29:03.699Z,26.20
2018-05-13T15:31:30.224Z,26.20
2018-05-13T15:33:56.806Z,26.00
2018-05-13T15:36:23.375Z,26.00
2018-05-13T15:38:49.929Z,26.00
2018-05-13T15:41:16.898Z,25.80
2018-05-13T15:43:43.452Z,25.90
2018-05-13T15:46:10.056Z,25.80
2018-05-13T15:48:36.633Z,25.70
2018-05-13T15:51:03.633Z,25.60
2018-05-13T15:53:30.234Z,25.60
2018-05-13T15:55:56.796Z,25.50
2018-05-13T15:58:23.397Z,25.40
2018-05-13T16:00:50.005Z,24.80
2018-05-13T16:03:16.552Z,24.00
2018-05-13T16:05:43.143Z,23.30
2018-05-13T16:08:09.681Z,23.00
2018-05-13T16:10:36.256Z,22.80
2018-05-13T16:13:03.228Z,22.80
2018-05-13T16:15:30.131Z,22.70
2018-05-13T16:17:56.708Z,22.70
2018-05-13T16:20:23.273Z,22.50
2018-05-13T16:22:50.211Z,22.40
2018-05-13T16:25:16.792Z,22.40
2018-05-13T16:27:43.395Z,22.40
2018-05-13T16:30:10.154Z,22.50
2018-05-13T16:32:37.142Z,22.50
2018-05-13T16:35:04.549Z,22.30
2018-05-13T16:37:31.143Z,22.30
2018-05-13T16:39:58.044Z,22.00
2018-05-13T16:42:24.627Z,22.00
2018-05-13T16:44:51.176Z,22.00
2018-05-13T16:47:17.764Z,21.80
2018-05-13T16:49:44.389Z,21.50
2018-05-13T16:52:11.304Z,19.40
2018-05-13T16:54:37.872Z,19.40
2018-05-13T16:57:04.429Z,19.10
2018-05-13T16:59:31.004Z,18.80
2018-05-13T17:01:57.964Z,18.30
2018-05-13T17:04:24.884Z,18.10
2018-05-13T17:06:51.465Z,18.10
2018-05-13T17:09:18.485Z,18.10
2018-05-13T17:11:45.316Z,18.10
2018-05-13T17:14:12.164Z,18.30
2018-05-13T17:16:38.973Z,18.60
2018-05-13T17:19:06.184Z,18.70
2018-05-13T17:21:32.978Z,18.70
2018-05-13T17:23:59.848Z,18.60
2018-05-13T17:26:26.748Z,18.30
2018-05-13T17:28:53.535Z,18.10
2018-05-13T17:31:20.395Z,18.00
2018-05-13T17:33:47.200Z,17.90
2018-05-13T17:36:14.110Z,17.90
2018-05-13T17:38:41.352Z,17.90
2018-05-13T17:41:08.153Z,17.90
2018-05-13T17:43:35.066Z,17.70
2018-05-13T17:46:02.862Z,17.70
2018-05-13T17:48:30.052Z,17.60
2018-05-13T17:50:56.864Z,17.60
2018-05-13T17:53:23.704Z,17.60
2018-05-13T17:55:50.528Z,17.40
2018-05-13T17:58:17.990Z,17.40
2018-05-13T18:00:45.778Z,17.60
2018-05-13T18:03:12.746Z,17.40
2018-05-13T18:05:39.836Z,16.20
2018-05-13T18:08:06.400Z,16.20
2018-05-13T18:10:33.329Z,15.30
2018-05-13T18:13:02.598Z,15.30
2018-05-13T18:15:29.692Z,15.30
2018-05-13T18:17:56.245Z,15.30
2018-05-13T18:20:22.832Z,15.30
2018-05-13T18:22:49.544Z,15.30
2018-05-13T18:25:18.291Z,15.20
2018-05-13T18:27:44.938Z,15.50
2018-05-13T18:30:11.481Z,15.50
2018-05-13T18:32:38.064Z,15.40
2018-05-13T18:35:04.724Z,15.40
2018-05-13T18:37:46.305Z,15.20
2018-05-13T18:40:12.969Z,15.10
2018-05-13T18:42:39.504Z,15.10
2018-05-13T18:45:07.128Z,15.20
2018-05-13T18:47:34.053Z,15.10
2018-05-13T18:50:01.634Z,15.10
2018-05-13T18:52:28.263Z,15.10
2018-05-13T18:54:54.864Z,15.20
2018-05-13T18:57:22.244Z,15.50
2018-05-13T18:59:49.458Z,15.50
2018-05-13T19:02:19.551Z,15.50
2018-05-13T19:04:48.109Z,15.50
2018-05-13T19:07:15.062Z,15.60
2018-05-13T19:09:42.105Z,15.60
2018-05-13T19:12:09.052Z,15.60
2018-05-13T19:14:36.221Z,15.60
2018-05-13T19:17:10.824Z,15.50
2018-05-13T19:19:38.312Z,15.50
2018-05-13T19:22:05.364Z,15.50
2018-05-13T19:24:32.852Z,15.60
2018-05-13T19:26:59.441Z,15.70
2018-05-13T19:29:26.328Z,15.60
2018-05-13T19:31:55.362Z,15.70
2018-05-13T19:34:23.548Z,15.60
2018-05-13T19:36:50.820Z,15.70
2018-05-13T19:39:17.635Z,15.80
2018-05-13T19:41:44.228Z,15.70
2018-05-13T19:44:11.172Z,15.80
2018-05-13T19:46:37.719Z,15.80
2018-05-13T19:49:04.380Z,15.80
2018-05-13T19:51:30.960Z,15.80
2018-05-13T19:53:58.252Z,15.80
2018-05-13T19:56:24.841Z,16.00
2018-05-13T19:58:51.776Z,16.30
2018-05-13T20:01:18.348Z,16.20
2018-05-13T20:03:45.360Z,16.20
2018-05-13T20:06:11.907Z,16.20
2018-05-13T20:08:38.839Z,16.20
2018-05-13T20:11:05.397Z,16.20
2018-05-13T20:13:31.976Z,16.20
2018-05-13T20:15:59.114Z,16.30
2018-05-13T20:18:25.709Z,16.30
2018-05-13T20:20:52.620Z,16.30
2018-05-13T20:23:24.331Z,16.30
2018-05-13T20:25:50.849Z,16.40
2018-05-13T20:28:17.398Z,16.50
2018-05-13T20:30:43.975Z,16.60
2018-05-13T20:33:10.936Z,16.80
2018-05-13T20:35:37.904Z,16.90
2018-05-13T20:38:05.882Z,16.90
2018-05-13T20:40:32.816Z,17.00
2018-05-13T20:42:59.405Z,17.00
2018-05-13T20:45:25.988Z,17.10
2018-05-13T20:47:52.552Z,17.20
2018-05-13T20:50:19.156Z,17.20
2018-05-13T20:52:45.704Z,17.30
2018-05-13T20:55:12.308Z,17.30
2018-05-13T20:57:38.892Z,17.30
2018-05-13T21:00:05.476Z,17.30
2018-05-13T21:02:32.084Z,17.30
2018-05-13T21:04:58.664Z,17.40
2018-05-13T21:07:25.276Z,17.40
2018-05-13T21:09:51.855Z,17.30
2018-05-13T21:12:18.412Z,17.30
2018-05-13T21:14:44.983Z,17.30
2018-05-13T21:17:11.516Z,17.20
2018-05-13T21:19:38.092Z,17.20
2018-05-13T21:22:05.065Z,17.00
2018-05-13T21:24:32.019Z,16.80
2018-05-13T21:26:58.955Z,16.70
2018-05-13T21:29:25.496Z,16.70
2018-05-13T21:31:52.083Z,16.70
2018-05-13T21:34:18.674Z,16.80
2018-05-13T21:36:45.251Z,16.80
2018-05-13T21:39:12.205Z,17.10
2018-05-13T21:41:38.762Z,17.10
2018-05-13T21:44:05.332Z,17.10
2018-05-13T21:46:31.917Z,17.20
2018-05-13T21:48:58.451Z,17.20
2018-05-13T21:51:25.057Z,17.30
2018-05-13T21:53:51.964Z,17.30
2018-05-13T21:56:18.556Z,17.30
2018-05-13T21:58:45.496Z,17.00
2018-05-13T22:01:12.421Z,17.10
2018-05-13T22:03:38.991Z,17.10
2018-05-13T22:06:05.556Z,17.10
2018-05-13T22:08:32.496Z,17.10
2018-05-13T22:10:59.061Z,17.10
2018-05-13T22:13:25.972Z,16.80
2018-05-13T22:15:52.541Z,16.80
2018-05-13T22:18:19.100Z,16.60
2018-05-13T22:20:45.665Z,16.60
2018-05-13T22:23:12.247Z,16.70
2018-05-13T22:25:38.839Z,16.70
2018-05-13T22:28:05.394Z,16.70
2018-05-13T22:30:32.308Z,16.80
2018-05-13T22:32:58.885Z,16.80
2018-05-13T22:35:25.456Z,16.80
2018-05-13T22:37:52.409Z,16.70
2018-05-13T22:40:19.357Z,16.50
2018-05-13T22:42:46.284Z,16.50
2018-05-13T22:45:12.896Z,16.50
2018-05-13T22:47:39.473Z,16.40
2018-05-13T22:50:06.016Z,16.50
2018-05-13T22:52:32.596Z,16.40
2018-05-13T22:54:59.136Z,16.30
2018-05-13T22:57:25.707Z,16.40
2018-05-13T22:59:52.276Z,16.50
2018-05-13T23:02:19.184Z,16.60
2018-05-13T23:04:45.751Z,16.60
2018-05-13T23:07:12.316Z,16.60
2018-05-13T23:09:39.235Z,16.70
2018-05-13T23:12:05.804Z,16.70
2018-05-13T23:14:32.380Z,16.60
2018-05-13T23:16:58.941Z,16.60
2018-05-13T23:19:25.512Z,16.50
2018-05-13T23:21:52.052Z,16.30
2018-05-13T23:24:18.635Z,16.20
2018-05-13T23:26:45.601Z,16.30
2018-05-13T23:29:12.527Z,16.40
2018-05-13T23:31:39.116Z,16.40
2018-05-13T23:34:06.044Z,16.50
2018-05-13T23:36:32.680Z,16.50
2018-05-13T23:38:59.315Z,16.60
2018-05-13T23:41:25.928Z,16.50
2018-05-13T23:43:52.901Z,16.50
2018-05-13T23:46:19.446Z,16.50
2018-05-13T23:48:46.041Z,16.40
2018-05-13T23:51:12.613Z,16.40
2018-05-13T23:53:39.519Z,16.30
2018-05-13T23:56:06.084Z,16.30
2018-05-13T23:58:32.653Z,16.30
